Terminal Aerodrome Forecast
Issued by NWS Greer, SC

Home | Current Version | Previous Version | Text Only | Print | Product List | Glossary On
Versions: 1 2 3 4 5 6 7 8 9 10 11 12 13 14 15 16 17 18 19 20 21 22 23 24 25 26 27 28 29 30 31 32 33 34 35 36
000
FTUS42 KGSP 242338
TAFAVL
TAF
KAVL 242338Z 2500/2524 34006KT P6SM SCT250
     FM250200 00000KT P6SM BKN250
     FM250800 00000KT 6SM -RA BR OVC050
     FM251400 17004KT 4SM -SHRA OVC015
     FM251600 18005KT 3SM -SHRA OVC008
     FM252000 20006KT 4SM -SHRA OVC008 PROB30 2520/2521 2SM TSRA
      OVC008CB=

USA.gov is the U.S. government's official web portal to all federal, state and local government web resources and services.